createdAt,value
2022-10-21T00:00:08.042Z,0.00
2022-10-21T00:01:08.037Z,0.00
2022-10-21T00:02:08.077Z,0.00
2022-10-21T00:03:08.032Z,0.00
2022-10-21T00:04:08.042Z,0.00
2022-10-21T00:05:08.034Z,0.00
2022-10-21T00:06:08.029Z,0.00
2022-10-21T00:07:08.032Z,0.00
2022-10-21T00:08:08.029Z,0.00
2022-10-21T00:09:08.097Z,0.00
2022-10-21T00:10:08.029Z,0.00
2022-10-21T00:11:08.029Z,0.00
2022-10-21T00:12:08.030Z,0.00
2022-10-21T00:13:08.021Z,0.00
2022-10-21T00:14:08.024Z,0.00
2022-10-21T00:15:08.017Z,0.00
2022-10-21T00:16:08.023Z,0.00
2022-10-21T00:17:08.016Z,0.00
2022-10-21T00:18:08.041Z,0.00
2022-10-21T00:19:08.015Z,0.00
2022-10-21T00:20:08.015Z,0.00
2022-10-21T00:21:08.012Z,0.00
2022-10-21T00:22:08.014Z,0.00
2022-10-21T00:23:08.008Z,0.00
2022-10-21T00:24:08.008Z,0.00
2022-10-21T00:25:08.010Z,0.00
2022-10-21T00:26:08.003Z,0.00
2022-10-21T00:27:08.003Z,0.00
2022-10-21T00:28:08.006Z,0.00
2022-10-21T00:29:08.105Z,0.00
2022-10-21T00:30:08.006Z,0.00
2022-10-21T00:31:08.003Z,0.00
2022-10-21T00:32:07.999Z,0.00
2022-10-21T00:33:07.997Z,0.00
2022-10-21T00:34:08.029Z,0.00
2022-10-21T00:35:07.999Z,0.00
2022-10-21T00:36:08.020Z,0.00
2022-10-21T00:37:07.999Z,0.00
2022-10-21T00:38:07.990Z,0.00
2022-10-21T00:39:07.995Z,0.00
2022-10-21T00:40:07.988Z,0.00
2022-10-21T00:41:07.989Z,0.00
2022-10-21T00:42:07.987Z,0.00
2022-10-21T00:43:07.983Z,0.00
2022-10-21T00:44:07.983Z,0.00
2022-10-21T00:45:07.980Z,0.00
2022-10-21T00:46:07.982Z,0.00
2022-10-21T00:47:07.981Z,0.00
2022-10-21T00:48:07.979Z,0.00
2022-10-21T00:49:07.978Z,0.00
2022-10-21T00:50:08.001Z,0.00
2022-10-21T00:51:07.984Z,0.00
2022-10-21T00:52:07.972Z,0.00
2022-10-21T00:53:07.972Z,0.00
2022-10-21T00:54:07.980Z,0.00
2022-10-21T00:55:07.969Z,0.00
2022-10-21T00:56:08.514Z,0.00
2022-10-21T00:57:07.967Z,0.00
2022-10-21T00:58:07.968Z,0.00
2022-10-21T00:59:07.971Z,0.00
2022-10-21T01:00:07.963Z,0.00
2022-10-21T01:01:08.052Z,0.00
2022-10-21T01:02:07.963Z,0.00
2022-10-21T01:03:07.963Z,0.00
2022-10-21T01:04:07.956Z,0.00
2022-10-21T01:05:07.960Z,0.00
2022-10-21T01:06:07.976Z,0.00
2022-10-21T01:07:07.954Z,0.00
2022-10-21T01:08:07.952Z,0.00
2022-10-21T01:09:08.095Z,0.00
2022-10-21T01:10:07.951Z,0.00
2022-10-21T01:11:07.950Z,0.00
2022-10-21T01:12:07.948Z,0.00
2022-10-21T01:13:07.948Z,0.00
2022-10-21T01:14:07.947Z,0.00
2022-10-21T01:15:07.946Z,0.00
2022-10-21T01:16:07.941Z,0.00
2022-10-21T01:17:20.645Z,0.00
2022-10-21T01:18:07.940Z,0.00
2022-10-21T01:19:07.939Z,0.00
2022-10-21T01:20:07.941Z,0.00
2022-10-21T01:21:07.938Z,0.00
2022-10-21T01:22:07.961Z,0.00
2022-10-21T01:23:07.935Z,0.00
2022-10-21T01:24:07.945Z,0.00
2022-10-21T01:25:07.935Z,0.00
2022-10-21T01:26:07.935Z,0.00
2022-10-21T01:27:07.929Z,0.00
2022-10-21T01:28:07.928Z,0.00
2022-10-21T01:29:07.930Z,0.00
2022-10-21T01:30:07.926Z,0.00
2022-10-21T01:31:07.923Z,0.00
2022-10-21T01:32:07.925Z,0.00
2022-10-21T01:33:07.999Z,0.00
2022-10-21T01:34:07.925Z,0.00
2022-10-21T01:35:07.923Z,0.00
2022-10-21T01:36:07.922Z,0.00
2022-10-21T01:37:07.921Z,0.00
2022-10-21T01:38:07.948Z,0.00
2022-10-21T01:39:07.914Z,0.00
2022-10-21T01:40:07.919Z,0.00
2022-10-21T01:41:07.917Z,0.00
2022-10-21T01:42:07.916Z,0.00
2022-10-21T01:43:07.914Z,0.00
2022-10-21T01:44:07.913Z,0.00
2022-10-21T01:45:07.909Z,0.00
2022-10-21T01:46:07.910Z,0.00
2022-10-21T01:47:07.912Z,0.00
2022-10-21T01:48:07.910Z,0.00
2022-10-21T01:49:07.908Z,0.00
2022-10-21T01:50:07.907Z,0.00
2022-10-21T01:51:07.905Z,0.00
2022-10-21T01:52:07.904Z,0.00
2022-10-21T01:53:07.901Z,0.00
2022-10-21T01:54:07.922Z,0.00
2022-10-21T01:55:07.898Z,0.00
2022-10-21T01:56:07.900Z,0.00
2022-10-21T01:57:07.900Z,0.00
2022-10-21T01:58:07.901Z,0.00
2022-10-21T01:59:07.894Z,0.00
2022-10-21T02:00:07.892Z,0.00
2022-10-21T02:01:07.924Z,0.00
2022-10-21T02:02:07.892Z,0.00
2022-10-21T02:03:07.889Z,0.00
2022-10-21T02:04:07.892Z,0.00
2022-10-21T02:05:07.890Z,0.00
2022-10-21T02:06:07.883Z,0.00
2022-10-21T02:07:07.881Z,0.00
2022-10-21T02:08:07.887Z,0.00
2022-10-21T02:09:07.997Z,0.00
2022-10-21T02:10:07.896Z,0.00
2022-10-21T02:11:07.880Z,0.00
2022-10-21T02:12:07.883Z,0.00
2022-10-21T02:13:07.875Z,0.00
2022-10-21T02:14:07.882Z,0.00
2022-10-21T02:15:07.874Z,0.00
2022-10-21T02:16:07.879Z,0.00
2022-10-21T02:17:07.877Z,0.00
2022-10-21T02:18:07.868Z,0.00
2022-10-21T02:19:07.869Z,0.00
2022-10-21T02:20:07.867Z,0.00
2022-10-21T02:21:07.871Z,0.00
2022-10-21T02:22:07.866Z,0.00
2022-10-21T02:23:07.867Z,0.00
2022-10-21T02:24:07.865Z,0.00
2022-10-21T02:25:07.864Z,0.00
2022-10-21T02:26:07.884Z,0.00
2022-10-21T02:27:07.860Z,0.00
2022-10-21T02:28:07.857Z,0.00
2022-10-21T02:29:07.862Z,0.00
2022-10-21T02:30:07.858Z,0.00
2022-10-21T02:31:07.856Z,0.00
2022-10-21T02:32:07.856Z,0.00
2022-10-21T02:33:07.860Z,0.00
2022-10-21T02:34:07.853Z,0.00
2022-10-21T02:35:07.855Z,0.00
2022-10-21T02:36:07.852Z,0.00
2022-10-21T02:37:07.853Z,0.00
2022-10-21T02:38:07.852Z,0.00
2022-10-21T02:39:07.846Z,0.00
2022-10-21T02:40:07.849Z,0.00
2022-10-21T02:41:07.848Z,0.00
2022-10-21T02:42:07.864Z,0.00
2022-10-21T02:43:07.840Z,0.00
2022-10-21T02:44:07.838Z,0.00
2022-10-21T02:45:07.838Z,0.00
2022-10-21T02:46:07.844Z,0.00
2022-10-21T02:47:07.904Z,0.00
2022-10-21T02:48:07.843Z,0.00
2022-10-21T02:49:07.836Z,0.00
2022-10-21T02:50:07.837Z,0.00
2022-10-21T02:51:07.835Z,0.00
2022-10-21T02:52:07.832Z,0.00
2022-10-21T02:53:07.835Z,0.00
2022-10-21T02:54:07.830Z,0.00
2022-10-21T02:55:07.829Z,0.00
2022-10-21T02:56:07.829Z,0.00
2022-10-21T02:57:07.826Z,0.00
2022-10-21T02:58:07.847Z,0.00
2022-10-21T02:59:07.825Z,0.00
2022-10-21T03:00:07.825Z,0.00
2022-10-21T03:01:07.902Z,0.00
2022-10-21T03:02:07.826Z,0.00
2022-10-21T03:03:07.818Z,0.00
2022-10-21T03:04:07.824Z,0.00
2022-10-21T03:05:07.819Z,0.00
2022-10-21T03:06:07.823Z,0.00
2022-10-21T03:07:07.816Z,0.00
2022-10-21T03:08:07.814Z,0.00
2022-10-21T03:09:07.814Z,0.00
2022-10-21T03:10:07.814Z,0.00
2022-10-21T03:11:07.811Z,0.00
2022-10-21T03:12:07.809Z,0.00
2022-10-21T03:13:07.811Z,0.00
2022-10-21T03:14:07.835Z,0.00
2022-10-21T03:15:07.807Z,0.00
2022-10-21T03:16:07.855Z,0.00
2022-10-21T03:17:07.805Z,0.00
2022-10-21T03:18:07.811Z,0.00
2022-10-21T03:19:07.802Z,0.00
2022-10-21T03:20:07.807Z,0.00
2022-10-21T03:21:07.803Z,0.00
2022-10-21T03:22:07.803Z,0.00
2022-10-21T03:23:07.801Z,0.00
2022-10-21T03:24:15.187Z,0.00
2022-10-21T03:25:07.796Z,0.00
2022-10-21T03:26:07.797Z,0.00
2022-10-21T03:27:07.789Z,0.00
2022-10-21T03:28:07.788Z,0.00
2022-10-21T03:29:07.792Z,0.00
2022-10-21T03:30:07.818Z,0.00
2022-10-21T03:31:07.794Z,0.00
2022-10-21T03:32:07.787Z,0.00
2022-10-21T03:33:07.789Z,0.00
2022-10-21T03:34:07.787Z,0.00
2022-10-21T03:35:07.791Z,0.00
2022-10-21T03:36:07.788Z,0.00
2022-10-21T03:37:07.785Z,0.00
2022-10-21T03:38:07.783Z,0.00
2022-10-21T03:39:07.787Z,0.00
2022-10-21T03:40:11.431Z,0.00
2022-10-21T03:41:07.780Z,0.00
2022-10-21T03:42:07.778Z,0.00
2022-10-21T03:43:07.783Z,0.00
2022-10-21T03:44:07.777Z,0.00
2022-10-21T03:45:07.778Z,0.00
2022-10-21T03:46:07.795Z,0.00
2022-10-21T03:47:07.772Z,0.00
2022-10-21T03:48:07.775Z,0.00
2022-10-21T03:49:14.648Z,0.00
2022-10-21T03:50:11.919Z,0.00
2022-10-21T03:51:07.772Z,0.00
2022-10-21T03:52:07.770Z,0.00
2022-10-21T03:53:18.591Z,0.00
2022-10-21T03:54:07.768Z,0.00
2022-10-21T03:55:07.766Z,0.00
2022-10-21T03:56:07.764Z,0.00
2022-10-21T03:57:07.766Z,0.00
2022-10-21T03:58:07.764Z,0.00
2022-10-21T03:59:07.762Z,0.00
2022-10-21T04:00:07.846Z,0.00
2022-10-21T04:01:07.760Z,0.00
2022-10-21T04:02:07.877Z,0.00
2022-10-21T04:03:07.754Z,0.00
2022-10-21T04:04:07.753Z,0.00
2022-10-21T04:05:07.754Z,0.00
2022-10-21T04:06:07.757Z,0.00
2022-10-21T04:07:07.752Z,0.00
2022-10-21T04:08:07.750Z,0.00
2022-10-21T04:09:07.822Z,0.00
2022-10-21T04:10:07.752Z,0.00
2022-10-21T04:11:07.750Z,0.00
2022-10-21T04:12:07.744Z,0.00
2022-10-21T04:13:07.745Z,0.00
2022-10-21T04:14:11.522Z,0.00
2022-10-21T04:15:07.746Z,0.00
2022-10-21T04:16:07.745Z,0.00
2022-10-21T04:17:08.108Z,0.00
2022-10-21T04:18:07.764Z,0.00
2022-10-21T04:19:07.746Z,0.00
2022-10-21T04:20:07.740Z,0.00
2022-10-21T04:21:07.736Z,0.00
2022-10-21T04:22:07.739Z,0.00
2022-10-21T04:23:07.738Z,0.00
2022-10-21T04:24:07.733Z,0.00
2022-10-21T04:25:07.736Z,0.00
2022-10-21T04:26:07.730Z,0.00
2022-10-21T04:27:07.730Z,0.00
2022-10-21T04:28:07.733Z,0.00
2022-10-21T04:29:07.729Z,0.00
2022-10-21T04:30:07.728Z,0.00
2022-10-21T04:31:07.728Z,0.00
2022-10-21T04:32:07.727Z,0.00
2022-10-21T04:33:07.731Z,0.00
2022-10-21T04:34:07.755Z,0.00
2022-10-21T04:35:07.724Z,0.00
2022-10-21T04:36:07.724Z,0.00
2022-10-21T04:37:07.721Z,0.00
2022-10-21T04:38:07.720Z,0.00
2022-10-21T04:39:07.717Z,0.00
2022-10-21T04:40:07.717Z,0.00
2022-10-21T04:41:07.718Z,0.00
2022-10-21T04:42:07.712Z,0.00
2022-10-21T04:43:07.715Z,0.00
2022-10-21T04:44:07.714Z,0.00
2022-10-21T04:45:07.713Z,0.00
2022-10-21T04:46:09.983Z,0.00
2022-10-21T04:47:07.715Z,0.00
2022-10-21T04:48:07.712Z,0.00
2022-10-21T04:49:07.709Z,0.00
2022-10-21T04:50:07.728Z,0.00
2022-10-21T04:51:07.706Z,0.00
2022-10-21T04:52:07.704Z,0.00
2022-10-21T04:53:07.717Z,0.00
2022-10-21T04:54:07.701Z,0.00
2022-10-21T04:55:07.704Z,0.00
2022-10-21T04:56:07.705Z,0.00
2022-10-21T04:57:07.704Z,0.00
2022-10-21T04:58:07.701Z,0.00
2022-10-21T04:59:07.696Z,0.00
2022-10-21T05:00:07.696Z,0.00
2022-10-21T05:01:07.735Z,0.00
2022-10-21T05:02:07.705Z,0.00
2022-10-21T05:03:07.698Z,0.00
2022-10-21T05:04:07.693Z,0.00
2022-10-21T05:05:07.691Z,0.00
2022-10-21T05:06:07.741Z,0.00
2022-10-21T05:07:07.691Z,0.00
2022-10-21T05:08:11.470Z,0.00
2022-10-21T05:09:07.757Z,0.00
2022-10-21T05:10:07.685Z,0.00
2022-10-21T05:11:07.682Z,0.00
2022-10-21T05:12:07.684Z,0.00
2022-10-21T05:13:07.684Z,0.00
2022-10-21T05:14:07.680Z,0.00
2022-10-21T05:15:07.684Z,0.00
2022-10-21T05:16:07.682Z,4.00
2022-10-21T05:17:07.679Z,4.00
2022-10-21T05:18:07.676Z,0.00
2022-10-21T05:19:07.675Z,4.00
2022-10-21T05:20:07.674Z,4.00
2022-10-21T05:21:07.675Z,4.00
2022-10-21T05:22:07.692Z,4.00
2022-10-21T05:23:07.667Z,8.00
2022-10-21T05:24:07.671Z,8.00
2022-10-21T05:25:07.674Z,12.00
2022-10-21T05:26:07.669Z,12.00
2022-10-21T05:27:07.669Z,12.00
2022-10-21T05:28:07.665Z,16.00
2022-10-21T05:29:07.660Z,16.00
2022-10-21T05:30:07.661Z,20.00
2022-10-21T05:31:07.665Z,20.00
2022-10-21T05:32:07.661Z,20.00
2022-10-21T05:33:07.664Z,20.00
2022-10-21T05:34:07.759Z,24.00
2022-10-21T05:35:07.659Z,24.00
2022-10-21T05:36:07.670Z,24.00
2022-10-21T05:37:07.661Z,24.00
2022-10-21T05:38:07.675Z,28.00
2022-10-21T05:39:07.654Z,28.00
2022-10-21T05:40:07.656Z,32.00
2022-10-21T05:41:07.651Z,40.00
2022-10-21T05:42:07.650Z,40.00
2022-10-21T05:43:07.657Z,44.00
2022-10-21T05:44:07.646Z,48.00
2022-10-21T05:45:07.646Z,52.00
2022-10-21T05:46:07.647Z,60.00
2022-10-21T05:47:07.650Z,68.00
2022-10-21T05:48:07.647Z,80.00
2022-10-21T05:49:07.670Z,88.00
2022-10-21T05:50:07.647Z,104.00
2022-10-21T05:51:07.643Z,124.00
2022-10-21T05:52:07.640Z,136.00
2022-10-21T05:53:07.638Z,148.00
2022-10-21T05:54:07.657Z,160.00
2022-10-21T05:55:07.636Z,172.00
2022-10-21T05:56:07.634Z,184.00
2022-10-21T05:57:07.637Z,196.00
2022-10-21T05:58:07.639Z,188.00
2022-10-21T05:59:10.081Z,192.00
2022-10-21T06:00:07.638Z,188.00
2022-10-21T06:01:07.698Z,172.00
2022-10-21T06:02:07.632Z,172.00
2022-10-21T06:03:07.635Z,176.00
2022-10-21T06:04:07.632Z,188.00
2022-10-21T06:05:07.624Z,208.00
2022-10-21T06:06:07.618Z,208.00
2022-10-21T06:07:07.623Z,212.00
2022-10-21T06:08:07.628Z,208.00
2022-10-21T06:09:07.691Z,212.00
2022-10-21T06:10:07.646Z,236.00
2022-10-21T06:11:07.628Z,260.00
2022-10-21T06:12:07.624Z,284.00
2022-10-21T06:13:07.630Z,312.00
2022-10-21T06:14:07.611Z,332.00
2022-10-21T06:15:07.618Z,344.00
2022-10-21T06:16:07.629Z,352.00
2022-10-21T06:17:07.614Z,356.00
2022-10-21T06:18:07.613Z,328.00
2022-10-21T06:19:07.610Z,304.00
2022-10-21T06:20:07.612Z,308.00
2022-10-21T06:21:07.615Z,324.00
2022-10-21T06:22:07.607Z,336.00
2022-10-21T06:23:07.608Z,340.00
2022-10-21T06:24:07.608Z,336.00
2022-10-21T06:25:07.687Z,328.00
2022-10-21T06:26:07.632Z,332.00
2022-10-21T06:27:07.605Z,348.00
2022-10-21T06:28:07.603Z,340.00
2022-10-21T06:29:07.597Z,320.00
2022-10-21T06:30:07.598Z,316.00
2022-10-21T06:31:07.598Z,340.00
2022-10-21T06:32:07.600Z,388.00
2022-10-21T06:33:07.596Z,452.00
2022-10-21T06:34:07.676Z,548.00
2022-10-21T06:35:07.599Z,608.00
2022-10-21T06:36:07.598Z,672.00
2022-10-21T06:37:07.596Z,756.00
2022-10-21T06:38:07.594Z,876.00
2022-10-21T06:39:07.594Z,988.00
2022-10-21T06:40:07.590Z,1084.00
2022-10-21T06:41:10.597Z,1168.00
2022-10-21T06:42:07.610Z,1252.00
2022-10-21T06:43:07.593Z,1328.00
2022-10-21T06:44:07.588Z,1348.00
2022-10-21T06:45:07.587Z,1340.00
2022-10-21T06:46:07.583Z,1348.00
2022-10-21T06:47:07.586Z,1336.00
2022-10-21T06:48:07.584Z,1328.00
2022-10-21T06:49:07.586Z,1236.00
2022-10-21T06:50:07.579Z,1124.00
2022-10-21T06:51:07.578Z,964.00
2022-10-21T06:52:07.576Z,788.00
2022-10-21T06:53:07.582Z,732.00
2022-10-21T06:54:07.586Z,708.00
2022-10-21T06:55:07.586Z,688.00
2022-10-21T06:56:07.577Z,692.00
2022-10-21T06:57:07.572Z,716.00
2022-10-21T06:58:07.587Z,764.00
2022-10-21T06:59:07.576Z,840.00
2022-10-21T07:00:07.571Z,960.00
2022-10-21T07:01:16.503Z,1132.00
2022-10-21T07:02:07.573Z,1232.00
2022-10-21T07:03:07.566Z,1328.00
2022-10-21T07:04:07.568Z,1452.00
2022-10-21T07:05:07.568Z,1584.00
2022-10-21T07:06:07.559Z,1684.00
2022-10-21T07:07:07.569Z,1776.00
2022-10-21T07:08:10.549Z,1808.00
2022-10-21T07:09:07.606Z,1760.00
2022-10-21T07:10:07.553Z,1744.00
2022-10-21T07:11:07.562Z,1680.00
2022-10-21T07:12:07.556Z,1508.00
2022-10-21T07:13:07.557Z,1412.00
2022-10-21T07:14:07.581Z,1528.00
2022-10-21T07:15:07.557Z,1632.00
2022-10-21T07:16:07.554Z,1740.00
2022-10-21T07:17:07.557Z,1932.00
2022-10-21T07:18:07.551Z,2160.00
2022-10-21T07:19:07.551Z,2196.00
2022-10-21T07:20:07.548Z,2036.00
2022-10-21T07:21:07.550Z,1484.00
2022-10-21T07:22:07.558Z,1080.00
2022-10-21T07:23:07.545Z,996.00
2022-10-21T07:24:07.550Z,912.00
2022-10-21T07:25:07.548Z,1040.00
2022-10-21T07:26:07.546Z,1392.00
2022-10-21T07:27:07.542Z,1732.00
2022-10-21T07:28:07.545Z,1660.00
2022-10-21T07:29:07.546Z,1384.00
2022-10-21T07:30:07.555Z,1080.00
2022-10-21T07:31:07.540Z,952.00
2022-10-21T07:32:07.539Z,952.00
2022-10-21T07:33:07.539Z,1020.00
2022-10-21T07:34:07.541Z,1136.00
2022-10-21T07:35:07.535Z,1148.00
2022-10-21T07:36:07.536Z,1208.00
2022-10-21T07:37:07.534Z,1252.00
2022-10-21T07:38:07.530Z,1152.00
2022-10-21T07:39:07.532Z,1112.00
2022-10-21T07:40:07.527Z,1092.00
2022-10-21T07:41:07.528Z,1112.00
2022-10-21T07:42:07.528Z,1148.00
2022-10-21T07:43:07.596Z,1352.00
2022-10-21T07:44:07.526Z,1804.00
2022-10-21T07:45:07.527Z,2292.00
2022-10-21T07:46:07.554Z,2764.00
2022-10-21T07:47:07.527Z,3088.00
2022-10-21T07:48:07.523Z,3260.00
2022-10-21T07:49:07.521Z,3428.00
2022-10-21T07:50:07.523Z,3552.00
2022-10-21T07:51:07.522Z,3696.00
2022-10-21T07:52:07.562Z,3760.00
2022-10-21T07:53:12.453Z,3716.00
2022-10-21T07:54:07.508Z,3640.00
2022-10-21T07:55:07.513Z,3524.00
2022-10-21T07:56:07.522Z,3392.00
2022-10-21T07:57:07.513Z,3240.00
2022-10-21T07:58:07.514Z,3112.00
2022-10-21T07:59:12.474Z,2920.00
2022-10-21T08:00:07.510Z,2784.00
2022-10-21T08:01:07.624Z,2536.00
2022-10-21T08:02:07.535Z,2176.00
2022-10-21T08:03:07.512Z,1800.00
2022-10-21T08:04:07.507Z,1512.00
2022-10-21T08:05:07.510Z,1324.00
2022-10-21T08:06:07.504Z,1256.00
2022-10-21T08:07:10.309Z,1248.00
2022-10-21T08:08:07.507Z,1300.00
2022-10-21T08:09:07.671Z,1384.00
2022-10-21T08:10:07.497Z,1464.00
2022-10-21T08:11:07.506Z,1600.00
2022-10-21T08:12:10.376Z,1820.00
2022-10-21T08:13:07.503Z,2056.00
2022-10-21T08:14:07.503Z,2320.00
2022-10-21T08:15:07.501Z,2016.00
2022-10-21T08:16:07.499Z,1736.00
2022-10-21T08:17:07.497Z,1692.00
2022-10-21T08:18:07.516Z,1712.00
2022-10-21T08:19:07.494Z,1784.00
2022-10-21T08:20:07.500Z,1952.00
2022-10-21T08:21:07.508Z,2144.00
2022-10-21T08:22:07.491Z,2492.00
2022-10-21T08:23:07.490Z,2960.00
2022-10-21T08:24:07.492Z,3328.00
2022-10-21T08:25:07.488Z,3588.00
2022-10-21T08:26:07.488Z,3952.00
2022-10-21T08:27:07.483Z,4684.00
2022-10-21T08:28:07.488Z,5864.00
2022-10-21T08:29:07.484Z,7076.00
2022-10-21T08:30:07.494Z,7960.00
2022-10-21T08:31:07.481Z,8760.00
2022-10-21T08:32:07.482Z,9688.00
2022-10-21T08:33:07.482Z,10492.00
2022-10-21T08:34:07.502Z,11252.00
2022-10-21T08:35:07.482Z,12152.00
2022-10-21T08:36:07.483Z,12108.00
2022-10-21T08:37:07.485Z,11472.00
2022-10-21T08:39:07.479Z,10484.00
2022-10-21T08:40:07.481Z,10428.00
2022-10-21T08:41:07.484Z,10228.00
2022-10-21T08:42:07.485Z,9724.00
2022-10-21T08:43:07.519Z,9196.00
2022-10-21T08:44:07.485Z,8472.00
2022-10-21T08:45:07.482Z,7668.00
2022-10-21T08:46:07.479Z,6984.00
2022-10-21T08:48:07.480Z,5828.00
2022-10-21T08:49:07.475Z,5392.00
2022-10-21T08:50:07.513Z,5124.00
2022-10-21T08:51:07.475Z,5212.00
2022-10-21T08:52:07.488Z,5780.00
2022-10-21T08:53:07.476Z,6572.00
2022-10-21T08:54:07.470Z,7280.00
2022-10-21T08:55:07.476Z,7708.00
2022-10-21T08:56:07.543Z,7784.00
2022-10-21T08:57:07.470Z,7660.00
2022-10-21T08:58:07.477Z,7392.00
2022-10-21T08:59:07.475Z,7128.00
2022-10-21T09:00:07.475Z,6844.00
2022-10-21T09:01:07.469Z,6376.00
2022-10-21T09:02:07.473Z,5924.00
2022-10-21T09:03:07.523Z,5448.00
2022-10-21T09:04:07.478Z,4860.00
2022-10-21T09:05:07.469Z,4140.00
2022-10-21T09:06:07.508Z,3404.00
2022-10-21T09:07:07.475Z,2868.00
2022-10-21T09:08:07.472Z,2580.00
2022-10-21T09:09:07.530Z,2516.00
2022-10-21T09:10:07.470Z,2744.00
2022-10-21T09:11:07.471Z,3036.00
2022-10-21T09:12:07.469Z,3208.00
2022-10-21T09:13:07.469Z,3488.00
2022-10-21T09:14:07.464Z,3708.00
2022-10-21T09:15:11.166Z,3996.00
2022-10-21T09:16:07.486Z,4436.00
2022-10-21T09:17:07.474Z,4804.00
2022-10-21T09:18:07.466Z,5132.00
2022-10-21T09:19:07.469Z,5140.00
2022-10-21T09:20:07.462Z,5092.00
2022-10-21T09:21:07.468Z,5020.00
2022-10-21T09:22:33.179Z,4856.00
2022-10-21T09:23:07.466Z,4664.00
2022-10-21T09:24:07.466Z,4412.00
2022-10-21T09:25:07.468Z,4348.00
2022-10-21T09:26:07.463Z,4664.00
2022-10-21T09:27:07.462Z,5408.00
2022-10-21T09:28:07.466Z,6436.00
2022-10-21T09:29:07.463Z,7368.00
2022-10-21T09:30:07.467Z,7816.00
2022-10-21T09:31:07.464Z,8164.00
2022-10-21T09:32:07.463Z,8576.00
2022-10-21T09:33:07.456Z,9384.00
2022-10-21T09:34:07.461Z,10080.00
2022-10-21T09:35:07.458Z,10532.00
2022-10-21T09:36:07.465Z,11288.00
2022-10-21T09:37:07.460Z,12284.00
2022-10-21T09:38:07.487Z,12980.00
2022-10-21T09:39:07.462Z,13140.00
2022-10-21T09:40:07.460Z,13680.00
2022-10-21T09:41:07.467Z,14324.00
2022-10-21T09:42:13.403Z,25024.00
2022-10-21T09:43:07.462Z,16896.00
2022-10-21T09:44:07.458Z,14544.00
2022-10-21T09:45:07.471Z,15424.00
2022-10-21T09:46:07.461Z,32160.00
2022-10-21T09:47:07.459Z,36704.00
2022-10-21T09:48:07.462Z,33120.00
2022-10-21T09:49:36.770Z,38240.00
2022-10-21T09:50:08.303Z,47392.00
2022-10-21T09:51:07.461Z,44256.00
2022-10-21T09:52:07.467Z,22432.00
2022-10-21T09:53:07.460Z,34816.00
2022-10-21T09:54:07.479Z,16360.00
2022-10-21T09:55:07.467Z,13852.00
2022-10-21T09:56:07.459Z,20832.00
2022-10-21T09:57:07.465Z,18464.00
2022-10-21T09:58:07.466Z,22752.00
2022-10-21T09:59:07.976Z,33440.00
2022-10-21T10:00:11.053Z,54944.00
2022-10-21T10:01:07.463Z,54624.00
2022-10-21T10:02:07.568Z,58112.00
2022-10-21T10:03:07.465Z,55104.00
2022-10-21T10:04:07.469Z,52992.00
2022-10-21T10:05:07.469Z,31360.00
2022-10-21T10:06:07.472Z,19008.00
2022-10-21T10:07:07.471Z,14068.00
2022-10-21T10:08:07.476Z,11092.00
2022-10-21T10:09:07.490Z,8124.00
2022-10-21T10:10:07.507Z,7060.00
2022-10-21T10:11:07.473Z,6836.00
2022-10-21T10:12:07.480Z,7272.00
2022-10-21T10:13:07.479Z,7560.00
2022-10-21T10:14:07.481Z,7432.00
2022-10-21T10:15:07.482Z,6836.00
2022-10-21T10:16:07.484Z,7140.00
2022-10-21T10:17:07.484Z,8420.00
2022-10-21T10:18:07.489Z,8256.00
2022-10-21T10:19:07.485Z,10340.00
2022-10-21T10:20:07.496Z,12968.00
2022-10-21T10:21:07.493Z,16704.00
2022-10-21T10:22:10.279Z,22464.00
2022-10-21T10:23:07.495Z,44640.00
2022-10-21T10:24:07.496Z,48160.00
2022-10-21T10:25:07.498Z,51296.00
2022-10-21T10:26:07.528Z,52096.00
2022-10-21T10:27:07.499Z,34464.00
2022-10-21T10:28:07.504Z,31904.00
2022-10-21T10:29:07.499Z,30400.00
2022-10-21T10:30:07.509Z,42688.00
2022-10-21T10:31:07.510Z,35872.00
2022-10-21T10:32:07.512Z,29600.00
2022-10-21T10:33:07.517Z,29152.00
2022-10-21T10:34:07.517Z,22944.00
2022-10-21T10:35:07.527Z,14108.00
2022-10-21T10:36:09.567Z,20480.00
2022-10-21T10:37:07.526Z,20480.00
2022-10-21T10:38:07.526Z,22528.00
2022-10-21T10:39:07.529Z,25056.00
2022-10-21T10:40:07.534Z,27680.00
2022-10-21T10:41:07.535Z,26016.00
2022-10-21T10:42:07.650Z,27392.00
2022-10-21T10:43:07.543Z,31840.00
2022-10-21T10:44:07.546Z,30752.00
2022-10-21T10:45:07.549Z,28128.00
2022-10-21T10:46:07.553Z,25472.00
2022-10-21T10:47:07.563Z,28320.00
2022-10-21T10:48:07.558Z,39296.00
2022-10-21T10:49:07.568Z,44192.00
2022-10-21T10:50:07.564Z,41248.00
2022-10-21T10:51:07.567Z,36224.00
2022-10-21T10:52:07.574Z,37664.00
2022-10-21T10:53:07.577Z,43744.00
2022-10-21T10:54:07.582Z,41856.00
2022-10-21T10:55:07.586Z,36960.00
2022-10-21T10:56:07.592Z,33888.00
2022-10-21T10:57:07.593Z,37632.00
2022-10-21T10:58:11.665Z,40768.00
2022-10-21T10:59:07.604Z,41024.00
2022-10-21T11:00:07.618Z,39264.00
2022-10-21T11:01:07.655Z,46720.00
2022-10-21T11:02:07.621Z,49696.00
2022-10-21T11:03:07.620Z,47904.00
2022-10-21T11:04:07.633Z,50016.00
2022-10-21T11:05:07.640Z,45888.00
2022-10-21T11:06:07.641Z,40160.00
2022-10-21T11:07:07.650Z,53120.00
2022-10-21T11:08:07.659Z,56192.00
2022-10-21T11:09:07.775Z,51936.00
2022-10-21T11:10:07.670Z,51712.00
2022-10-21T11:11:07.676Z,49824.00
2022-10-21T11:12:07.682Z,49056.00
2022-10-21T11:13:07.696Z,44672.00
2022-10-21T11:14:07.823Z,42912.00
2022-10-21T11:15:07.706Z,39424.00
2022-10-21T11:16:07.717Z,34880.00
2022-10-21T11:17:07.729Z,32768.00
2022-10-21T11:18:24.173Z,32480.00
2022-10-21T11:19:07.743Z,31136.00
2022-10-21T11:20:07.761Z,26656.00
2022-10-21T11:21:07.764Z,22784.00
2022-10-21T11:22:07.772Z,21472.00
2022-10-21T11:24:07.797Z,20960.00
2022-10-21T11:25:07.795Z,15728.00
2022-10-21T11:26:07.809Z,14488.00
2022-10-21T11:27:07.818Z,12308.00
2022-10-21T11:28:07.825Z,14124.00
2022-10-21T11:29:07.847Z,14536.00
2022-10-21T11:30:07.960Z,14604.00
2022-10-21T11:31:07.861Z,14468.00
2022-10-21T11:32:11.442Z,17216.00
2022-10-21T11:33:07.869Z,17760.00
2022-10-21T11:34:12.703Z,19904.00
2022-10-21T11:35:07.884Z,20960.00
2022-10-21T11:36:07.896Z,19360.00
2022-10-21T11:37:07.907Z,17984.00
2022-10-21T11:38:07.908Z,20704.00
2022-10-21T11:39:07.917Z,23008.00
2022-10-21T11:40:07.926Z,19232.00
2022-10-21T11:41:08.035Z,19232.00
2022-10-21T11:42:07.942Z,17472.00
2022-10-21T11:43:07.954Z,16800.00
2022-10-21T11:44:07.957Z,16640.00
2022-10-21T11:45:07.966Z,15904.00
2022-10-21T11:46:08.143Z,15028.00
2022-10-21T11:47:07.977Z,13676.00
2022-10-21T11:48:07.995Z,12792.00
2022-10-21T11:49:07.989Z,12376.00
2022-10-21T11:50:08.161Z,11880.00
2022-10-21T11:51:10.420Z,11412.00
2022-10-21T11:52:08.019Z,11604.00
2022-10-21T11:53:08.024Z,11644.00
2022-10-21T11:54:08.031Z,12304.00
2022-10-21T11:55:10.339Z,14068.00
2022-10-21T11:56:08.047Z,23168.00
2022-10-21T11:57:08.051Z,23552.00
2022-10-21T11:58:08.059Z,27456.00
2022-10-21T11:59:08.063Z,28608.00
2022-10-21T12:00:08.157Z,27424.00
2022-10-21T12:01:08.079Z,22336.00
2022-10-21T12:02:08.249Z,18240.00
2022-10-21T12:03:08.091Z,14500.00
2022-10-21T12:04:08.099Z,14000.00
2022-10-21T12:05:08.109Z,12812.00
2022-10-21T12:06:08.114Z,12444.00
2022-10-21T12:07:11.183Z,11868.00
2022-10-21T12:08:08.128Z,11012.00
2022-10-21T12:09:08.129Z,10228.00
2022-10-21T12:10:08.273Z,9408.00
2022-10-21T12:11:08.145Z,9060.00
2022-10-21T12:12:08.152Z,8488.00
2022-10-21T12:13:08.159Z,7784.00
2022-10-21T12:14:08.159Z,7236.00
2022-10-21T12:15:08.172Z,7124.00
2022-10-21T12:16:08.177Z,7328.00
2022-10-21T12:17:08.184Z,7668.00
2022-10-21T12:18:08.303Z,7992.00
2022-10-21T12:19:08.193Z,8100.00
2022-10-21T12:20:08.207Z,7848.00
2022-10-21T12:21:08.206Z,7864.00
2022-10-21T12:22:08.209Z,7952.00
2022-10-21T12:23:08.216Z,7576.00
2022-10-21T12:24:08.217Z,7120.00
2022-10-21T12:25:08.225Z,6704.00
2022-10-21T12:26:08.228Z,6564.00
2022-10-21T12:27:08.236Z,6468.00
2022-10-21T12:28:08.239Z,6412.00
2022-10-21T12:29:08.249Z,6156.00
2022-10-21T12:30:08.247Z,5904.00
2022-10-21T12:31:08.254Z,5696.00
2022-10-21T12:32:08.257Z,5596.00
2022-10-21T12:33:08.260Z,5516.00
2022-10-21T12:34:08.377Z,5540.00
2022-10-21T12:35:08.270Z,5496.00
2022-10-21T12:36:08.271Z,5520.00
2022-10-21T12:37:08.277Z,5572.00